createdAt,value
2018-03-26T00:00:56.817Z,67.43
2018-03-26T00:03:25.227Z,67.43
2018-03-26T00:05:53.710Z,67.51
2018-03-26T00:08:22.295Z,67.44
2018-03-26T00:10:50.977Z,67.49
2018-03-26T00:13:21.008Z,67.57
2018-03-26T00:15:50.148Z,67.62
2018-03-26T00:18:18.515Z,67.53
2018-03-26T00:20:47.223Z,67.58
2018-03-26T00:23:15.670Z,67.63
2018-03-26T00:25:44.757Z,67.88
2018-03-26T00:28:13.479Z,68.01
2018-03-26T00:30:42.123Z,68.19
2018-03-26T00:33:11.630Z,68.30
2018-03-26T00:35:42.108Z,68.43
2018-03-26T00:38:12.095Z,68.29
2018-03-26T00:40:41.896Z,68.34
2018-03-26T00:43:10.811Z,68.54
2018-03-26T00:45:40.302Z,68.63
2018-03-26T00:48:09.738Z,68.50
2018-03-26T00:50:38.253Z,68.53
2018-03-26T00:53:08.164Z,68.53
2018-03-26T00:55:37.566Z,68.52
2018-03-26T00:58:06.410Z,68.54
2018-03-26T01:00:34.776Z,68.45
2018-03-26T01:03:10.045Z,68.53
2018-03-26T01:05:38.493Z,68.70
2018-03-26T01:08:07.193Z,68.71
2018-03-26T01:10:36.480Z,68.66
2018-03-26T01:13:05.361Z,68.75
2018-03-26T01:15:34.468Z,68.90
2018-03-26T01:18:04.392Z,68.99
2018-03-26T01:20:35.156Z,68.97
2018-03-26T01:23:03.639Z,69.20
2018-03-26T01:25:32.279Z,69.05
2018-03-26T01:28:00.677Z,69.06
2018-03-26T01:30:31.346Z,69.01
2018-03-26T01:33:00.151Z,69.15
2018-03-26T01:35:29.070Z,69.00
2018-03-26T01:37:57.622Z,69.00
2018-03-26T01:40:26.159Z,68.92
2018-03-26T01:42:55.030Z,69.08
2018-03-26T01:45:24.228Z,69.00
2018-03-26T01:47:52.589Z,69.09
2018-03-26T01:50:21.341Z,69.10
2018-03-26T01:52:50.830Z,68.93
2018-03-26T01:55:20.141Z,68.67
2018-03-26T01:57:49.174Z,68.86
2018-03-26T02:00:17.876Z,68.93
2018-03-26T02:02:46.613Z,69.20
2018-03-26T02:05:14.969Z,69.36
2018-03-26T02:07:44.362Z,69.50
2018-03-26T02:10:12.821Z,69.58
2018-03-26T02:12:41.824Z,69.42
2018-03-26T02:15:10.295Z,69.30
2018-03-26T02:17:38.703Z,69.38
2018-03-26T02:20:07.357Z,69.40
2018-03-26T02:22:37.096Z,69.55
2018-03-26T02:25:05.465Z,69.75
2018-03-26T02:27:34.924Z,69.82
2018-03-26T02:30:03.802Z,69.77
2018-03-26T02:32:33.798Z,69.72
2018-03-26T02:35:02.293Z,69.71
2018-03-26T02:37:32.388Z,69.63
2018-03-26T02:40:01.016Z,69.56
2018-03-26T02:42:29.641Z,69.52
2018-03-26T02:45:00.086Z,69.54
2018-03-26T02:47:30.140Z,69.60
2018-03-26T02:49:58.739Z,69.65
2018-03-26T02:52:27.162Z,69.66
2018-03-26T02:54:56.362Z,69.48
2018-03-26T02:57:25.008Z,69.41
2018-03-26T02:59:54.001Z,69.40
2018-03-26T03:02:23.211Z,69.40
2018-03-26T03:04:51.898Z,69.44
2018-03-26T03:07:20.692Z,69.53
2018-03-26T03:09:49.872Z,69.58
2018-03-26T03:12:18.228Z,69.56
2018-03-26T03:14:47.141Z,69.58
2018-03-26T03:17:16.086Z,69.76
2018-03-26T03:19:44.445Z,69.71
2018-03-26T03:22:13.005Z,69.72
2018-03-26T03:24:41.548Z,69.64
2018-03-26T03:27:09.922Z,69.73
2018-03-26T03:29:38.279Z,69.71
2018-03-26T03:32:07.262Z,69.76
2018-03-26T03:34:35.948Z,69.81
2018-03-26T03:37:04.618Z,69.77
2018-03-26T03:39:33.165Z,69.75
2018-03-26T03:42:01.668Z,69.75
2018-03-26T03:44:30.020Z,69.90
2018-03-26T03:46:59.877Z,69.91
2018-03-26T03:49:28.962Z,69.94
2018-03-26T03:51:57.995Z,69.90
2018-03-26T03:54:26.784Z,69.88
2018-03-26T03:56:55.601Z,69.67
2018-03-26T03:59:24.084Z,69.74
2018-03-26T04:01:52.875Z,69.74
2018-03-26T04:04:21.436Z,69.82
2018-03-26T04:06:49.908Z,69.78
2018-03-26T04:09:18.701Z,69.72
2018-03-26T04:11:47.059Z,69.76
2018-03-26T04:14:16.646Z,69.67
2018-03-26T04:16:45.643Z,69.61
2018-03-26T04:19:14.281Z,69.63
2018-03-26T04:21:44.523Z,69.56
2018-03-26T04:24:12.965Z,69.54
2018-03-26T04:26:41.325Z,69.53
2018-03-26T04:29:09.693Z,69.49
2018-03-26T04:31:39.236Z,69.45
2018-03-26T04:34:08.103Z,69.47
2018-03-26T04:36:36.971Z,69.55
2018-03-26T04:39:06.113Z,69.48
2018-03-26T04:41:34.531Z,69.41
2018-03-26T04:44:02.910Z,69.33
2018-03-26T04:46:31.262Z,69.23
2018-03-26T04:48:59.638Z,69.19
2018-03-26T04:51:29.071Z,69.33
2018-03-26T04:53:58.397Z,69.49
2018-03-26T04:56:27.682Z,69.59
2018-03-26T04:58:56.550Z,69.61
2018-03-26T05:01:26.101Z,69.49
2018-03-26T05:03:54.728Z,69.51
2018-03-26T05:06:23.520Z,69.37
2018-03-26T05:08:51.908Z,69.23
2018-03-26T05:11:20.811Z,69.01
2018-03-26T05:13:49.198Z,68.79
2018-03-26T05:16:19.235Z,68.42
2018-03-26T05:18:49.182Z,68.20
2018-03-26T05:21:17.632Z,68.12
2018-03-26T05:23:46.425Z,68.12
2018-03-26T05:26:15.071Z,68.16
2018-03-26T05:28:44.039Z,68.16
2018-03-26T05:31:13.289Z,68.02
2018-03-26T05:33:42.529Z,67.89
2018-03-26T05:36:11.466Z,67.72
2018-03-26T05:38:40.698Z,67.59
2018-03-26T05:41:10.250Z,67.52
2018-03-26T05:43:39.588Z,67.49
2018-03-26T05:46:09.900Z,67.46
2018-03-26T05:48:38.804Z,67.45
2018-03-26T05:51:07.200Z,67.39
2018-03-26T05:53:35.976Z,67.35
2018-03-26T05:56:05.918Z,67.30
2018-03-26T05:58:34.859Z,67.24
2018-03-26T06:01:04.707Z,67.21
2018-03-26T06:03:34.219Z,67.16
2018-03-26T06:06:03.471Z,67.13
2018-03-26T06:08:33.039Z,67.19
2018-03-26T06:11:02.234Z,67.16
2018-03-26T06:13:32.955Z,67.16
2018-03-26T06:16:02.909Z,67.09
2018-03-26T06:18:31.710Z,66.95
2018-03-26T06:21:01.388Z,66.87
2018-03-26T06:23:30.085Z,66.80
2018-03-26T06:25:59.771Z,66.70
2018-03-26T06:28:28.617Z,66.71
2018-03-26T06:30:59.076Z,66.70
2018-03-26T06:33:28.183Z,66.64
2018-03-26T06:35:57.778Z,66.60
2018-03-26T06:38:32.424Z,66.52
2018-03-26T06:41:01.067Z,66.48
2018-03-26T06:43:29.489Z,66.50
2018-03-26T06:45:58.161Z,66.57
2018-03-26T06:48:26.653Z,66.63
2018-03-26T06:50:55.155Z,66.75
2018-03-26T06:53:23.529Z,66.70
2018-03-26T06:55:51.884Z,66.63
2018-03-26T06:58:20.734Z,66.54
2018-03-26T07:00:49.185Z,66.50
2018-03-26T07:03:18.389Z,66.50
2018-03-26T07:05:48.182Z,66.51
2018-03-26T07:08:17.631Z,66.43
2018-03-26T07:10:46.177Z,66.22
2018-03-26T07:13:15.347Z,65.83
2018-03-26T07:15:43.884Z,65.74
2018-03-26T07:18:12.278Z,65.57
2018-03-26T07:20:40.629Z,65.56
2018-03-26T07:23:09.386Z,65.60
2018-03-26T07:25:38.429Z,65.60
2018-03-26T07:28:06.938Z,65.67
2018-03-26T07:30:35.342Z,65.75
2018-03-26T07:33:04.464Z,65.77
2018-03-26T07:35:32.817Z,65.74
2018-03-26T07:38:02.044Z,65.73
2018-03-26T07:40:30.437Z,65.65
2018-03-26T07:42:59.048Z,65.73
2018-03-26T07:45:27.895Z,65.63
2018-03-26T07:47:56.286Z,65.73
2018-03-26T07:50:24.689Z,65.67
2018-03-26T07:52:53.904Z,65.57
2018-03-26T07:55:22.325Z,65.54
2018-03-26T07:57:52.115Z,65.39
2018-03-26T08:00:20.722Z,65.37
2018-03-26T08:02:50.059Z,65.38
2018-03-26T08:05:18.514Z,65.40
2018-03-26T08:07:47.830Z,65.45
2018-03-26T08:10:16.689Z,65.46
2018-03-26T08:12:45.114Z,65.51
2018-03-26T08:15:13.802Z,65.58
2018-03-26T08:17:42.708Z,65.72
2018-03-26T08:20:11.280Z,65.77
2018-03-26T08:22:39.639Z,65.90
2018-03-26T08:25:08.275Z,66.00
2018-03-26T08:27:36.746Z,66.16
2018-03-26T08:30:05.463Z,66.02
2018-03-26T08:32:34.682Z,66.07
2018-03-26T08:35:03.625Z,66.02
2018-03-26T08:37:32.681Z,65.99
2018-03-26T08:40:01.035Z,66.08
2018-03-26T08:42:29.457Z,66.09
2018-03-26T08:44:58.395Z,66.12
2018-03-26T08:47:27.947Z,66.09
2018-03-26T08:49:56.394Z,66.11
2018-03-26T08:52:25.583Z,66.22
2018-03-26T08:54:54.590Z,66.19
2018-03-26T08:57:23.446Z,66.19
2018-03-26T08:59:51.865Z,66.14
2018-03-26T09:02:21.335Z,66.12
2018-03-26T09:04:49.760Z,65.91
2018-03-26T09:07:18.671Z,65.78
2018-03-26T09:09:47.139Z,65.74
2018-03-26T09:12:15.526Z,65.84
2018-03-26T09:14:43.872Z,65.87
2018-03-26T09:17:12.224Z,65.78
2018-03-26T09:19:40.585Z,65.76
2018-03-26T09:22:09.253Z,65.96
2018-03-26T09:24:38.575Z,66.02
2018-03-26T09:27:07.368Z,65.95
2018-03-26T09:29:36.528Z,65.82
2018-03-26T09:32:05.141Z,65.78
2018-03-26T09:34:33.890Z,65.93
2018-03-26T09:37:03.271Z,65.83
2018-03-26T09:39:31.814Z,65.92
2018-03-26T09:42:00.606Z,65.86
2018-03-26T09:44:29.018Z,65.63
2018-03-26T09:46:57.541Z,65.63
2018-03-26T09:49:26.282Z,65.45
2018-03-26T09:51:55.841Z,65.37
2018-03-26T09:54:24.449Z,65.24
2018-03-26T09:56:53.559Z,65.25
2018-03-26T09:59:22.698Z,64.96
2018-03-26T10:01:57.199Z,64.76
2018-03-26T10:04:26.544Z,64.34
2018-03-26T10:06:56.078Z,64.13
2018-03-26T10:09:24.791Z,63.72
2018-03-26T10:11:53.343Z,63.11
2018-03-26T10:14:23.004Z,63.13
2018-03-26T10:16:51.357Z,63.16
2018-03-26T10:19:20.102Z,62.48
2018-03-26T10:21:49.160Z,62.34
2018-03-26T10:24:17.522Z,61.76
2018-03-26T10:26:46.654Z,61.32
2018-03-26T10:29:15.339Z,61.07
2018-03-26T10:31:44.020Z,61.32
2018-03-26T10:34:12.513Z,61.23
2018-03-26T10:36:40.981Z,60.75
2018-03-26T10:39:09.342Z,60.71
2018-03-26T10:41:37.833Z,60.54
2018-03-26T10:44:06.907Z,60.52
2018-03-26T10:46:35.467Z,60.24
2018-03-26T10:49:04.707Z,59.88
2018-03-26T10:51:33.308Z,59.33
2018-03-26T10:54:02.089Z,59.36
2018-03-26T10:56:31.320Z,58.87
2018-03-26T10:58:59.676Z,58.61
2018-03-26T11:01:29.378Z,58.37
2018-03-26T11:03:57.871Z,58.25
2018-03-26T11:06:26.362Z,58.24
2018-03-26T11:08:54.721Z,58.34
2018-03-26T11:11:23.627Z,58.49
2018-03-26T11:13:52.045Z,58.40
2018-03-26T11:16:20.896Z,58.18
2018-03-26T11:18:50.206Z,57.91
2018-03-26T11:21:19.032Z,57.72
2018-03-26T11:23:47.514Z,57.83
2018-03-26T11:26:16.317Z,57.95
2018-03-26T11:28:44.678Z,57.68
2018-03-26T11:31:14.229Z,57.45
2018-03-26T11:33:42.668Z,57.47
2018-03-26T11:36:11.627Z,57.63
2018-03-26T11:38:40.848Z,58.21
2018-03-26T11:41:09.617Z,58.24
2018-03-26T11:43:38.187Z,58.27
2018-03-26T11:46:06.766Z,57.77
2018-03-26T11:48:35.376Z,57.37
2018-03-26T11:51:03.746Z,57.32
2018-03-26T11:53:33.031Z,57.47
2018-03-26T11:56:01.570Z,57.27
2018-03-26T11:58:30.049Z,56.91
2018-03-26T12:00:58.737Z,56.47
2018-03-26T12:03:28.399Z,56.09
2018-03-26T12:05:57.328Z,56.14
2018-03-26T12:08:26.157Z,56.26
2018-03-26T12:10:54.545Z,55.72
2018-03-26T12:13:23.384Z,55.31
2018-03-26T12:15:52.025Z,54.87
2018-03-26T12:18:20.722Z,54.74
2018-03-26T12:21:00.244Z,54.82
2018-03-26T12:23:40.470Z,54.08
2018-03-26T12:26:08.899Z,54.57
2018-03-26T12:28:49.048Z,55.23
2018-03-26T12:31:17.885Z,55.64
2018-03-26T12:33:58.149Z,56.29
2018-03-26T12:36:27.448Z,57.07
2018-03-26T12:38:56.841Z,57.61
2018-03-26T12:41:27.706Z,57.95
2018-03-26T12:43:57.458Z,58.32
2018-03-26T12:46:37.785Z,58.36
2018-03-26T12:49:07.716Z,58.48
2018-03-26T12:51:47.942Z,58.53
2018-03-26T12:54:16.545Z,58.33
2018-03-26T12:56:45.314Z,57.98
2018-03-26T12:59:13.910Z,57.72
2018-03-26T13:01:55.290Z,57.43
2018-03-26T13:04:23.697Z,57.21
2018-03-26T13:06:53.088Z,56.86
2018-03-26T13:09:23.221Z,56.13
2018-03-26T13:11:54.071Z,55.46
2018-03-26T13:14:24.541Z,56.29
2018-03-26T13:16:54.166Z,56.99
2018-03-26T13:19:23.380Z,57.39
2018-03-26T13:21:51.883Z,57.28
2018-03-26T13:24:20.545Z,56.54
2018-03-26T13:26:50.125Z,56.33
2018-03-26T13:29:18.522Z,56.89
2018-03-26T13:31:46.878Z,57.56
2018-03-26T13:34:15.269Z,58.09
2018-03-26T13:36:43.636Z,58.44
2018-03-26T13:39:12.516Z,58.81
2018-03-26T13:41:41.183Z,59.23
2018-03-26T13:44:11.162Z,59.35
2018-03-26T13:46:39.541Z,59.33
2018-03-26T13:49:08.909Z,59.57
2018-03-26T13:51:37.337Z,59.99
2018-03-26T13:54:06.067Z,60.32
2018-03-26T13:56:34.513Z,60.37
2018-03-26T13:59:02.853Z,60.66
2018-03-26T14:01:31.438Z,60.69
2018-03-26T14:04:00.722Z,61.18
2018-03-26T14:06:29.103Z,61.37
2018-03-26T14:09:10.661Z,61.57
2018-03-26T14:14:53.998Z,61.90
2018-03-26T14:17:34.566Z,62.30
2018-03-26T14:20:03.246Z,62.38
2018-03-26T14:22:31.686Z,62.56
2018-03-26T14:25:00.401Z,62.74
2018-03-26T14:27:29.980Z,62.53
2018-03-26T14:29:59.422Z,62.32
2018-03-26T14:32:27.853Z,62.36
2018-03-26T14:35:08.236Z,62.38
2018-03-26T14:37:36.851Z,62.29
2018-03-26T14:40:05.441Z,62.46
2018-03-26T14:42:33.809Z,62.96
2018-03-26T14:45:02.747Z,63.37
2018-03-26T14:47:32.134Z,63.53
2018-03-26T14:50:00.655Z,63.78
2018-03-26T14:52:29.021Z,63.82
2018-03-26T14:54:57.689Z,63.68
2018-03-26T14:57:27.350Z,63.59
2018-03-26T14:59:56.153Z,63.38
2018-03-26T15:02:24.638Z,63.28
2018-03-26T15:04:53.062Z,63.28
2018-03-26T15:07:21.412Z,63.16
2018-03-26T15:09:50.119Z,63.26
2018-03-26T15:12:19.561Z,63.37
2018-03-26T15:14:47.989Z,63.29
2018-03-26T15:17:16.359Z,63.45
2018-03-26T15:19:45.417Z,63.44
2018-03-26T15:22:13.766Z,63.44
2018-03-26T15:24:42.431Z,63.49
2018-03-26T15:27:11.282Z,63.66
2018-03-26T15:29:39.658Z,63.81
2018-03-26T15:32:08.135Z,63.90
2018-03-26T15:34:36.485Z,64.08
2018-03-26T15:37:05.144Z,64.34
2018-03-26T15:39:33.917Z,64.46
2018-03-26T15:42:02.648Z,64.60
2018-03-26T15:44:31.016Z,64.86
2018-03-26T15:46:59.367Z,64.51
2018-03-26T15:49:28.000Z,64.59
2018-03-26T15:51:56.354Z,64.68
2018-03-26T15:54:25.052Z,64.61
2018-03-26T15:56:53.414Z,64.72
2018-03-26T15:59:22.017Z,64.64
2018-03-26T16:01:50.375Z,64.85
2018-03-26T16:04:18.757Z,64.79
2018-03-26T16:06:47.124Z,65.02
2018-03-26T16:09:15.489Z,65.00
2018-03-26T16:11:43.861Z,64.88
2018-03-26T16:14:13.727Z,64.77
2018-03-26T16:16:42.077Z,64.87
2018-03-26T16:19:10.426Z,64.87
2018-03-26T16:21:38.915Z,64.82
2018-03-26T16:24:07.786Z,64.98
2018-03-26T16:26:36.560Z,65.12
2018-03-26T16:29:04.907Z,65.32
2018-03-26T16:31:33.589Z,65.41
2018-03-26T16:34:02.383Z,65.49
2018-03-26T16:36:30.745Z,65.68
2018-03-26T16:38:59.630Z,65.93
2018-03-26T16:41:40.733Z,66.18
2018-03-26T16:44:09.741Z,66.26
2018-03-26T16:46:38.097Z,66.36
2018-03-26T16:49:06.523Z,66.36
2018-03-26T16:51:36.132Z,66.50
2018-03-26T16:54:04.533Z,66.61
2018-03-26T16:56:32.895Z,66.78
2018-03-26T16:59:01.255Z,66.96
2018-03-26T17:01:29.850Z,66.95
2018-03-26T17:03:58.219Z,67.01
2018-03-26T17:06:26.582Z,66.87
2018-03-26T17:08:54.937Z,66.83
2018-03-26T17:11:23.300Z,66.71
2018-03-26T17:13:51.662Z,66.51
2018-03-26T17:16:20.080Z,66.38
2018-03-26T17:18:48.734Z,66.33
2018-03-26T17:21:17.113Z,66.38
2018-03-26T17:23:45.469Z,66.42
2018-03-26T17:26:14.173Z,66.36
2018-03-26T17:28:42.526Z,66.37
2018-03-26T17:31:10.931Z,66.32
2018-03-26T17:33:39.285Z,66.49
2018-03-26T17:36:07.698Z,66.77
2018-03-26T17:38:36.458Z,67.19
2018-03-26T17:41:05.092Z,67.49
2018-03-26T17:43:34.385Z,67.92
2018-03-26T17:46:02.739Z,68.45
2018-03-26T17:48:31.458Z,68.77
2018-03-26T17:51:00.138Z,69.04
2018-03-26T17:53:29.040Z,69.31
2018-03-26T17:55:57.410Z,69.63
2018-03-26T17:58:25.812Z,69.64
2018-03-26T18:00:55.078Z,69.72
2018-03-26T18:03:23.772Z,70.11
2018-03-26T18:05:52.534Z,70.04
2018-03-26T18:08:20.887Z,70.06
2018-03-26T18:10:49.546Z,70.17
2018-03-26T18:13:18.702Z,70.19
2018-03-26T18:15:48.495Z,70.39
2018-03-26T18:18:17.268Z,70.56
2018-03-26T18:20:46.599Z,70.65
2018-03-26T18:23:15.078Z,70.59
2018-03-26T18:25:43.526Z,70.45
2018-03-26T18:28:12.026Z,70.69
2018-03-26T18:30:40.472Z,70.79
2018-03-26T18:33:09.631Z,71.00
2018-03-26T18:35:37.986Z,71.86
2018-03-26T18:38:06.401Z,71.99
2018-03-26T18:40:35.025Z,72.28
2018-03-26T18:43:05.632Z,72.53
2018-03-26T18:45:34.536Z,72.59
2018-03-26T18:48:03.274Z,72.73
2018-03-26T18:50:32.195Z,72.65
2018-03-26T18:53:01.323Z,72.84
2018-03-26T18:55:30.177Z,72.83
2018-03-26T18:57:58.563Z,73.10
2018-03-26T19:00:26.922Z,73.10
2018-03-26T19:02:55.273Z,73.27
2018-03-26T19:05:23.996Z,73.50
2018-03-26T19:07:52.386Z,73.45
2018-03-26T19:10:20.807Z,73.63
2018-03-26T19:12:49.841Z,74.08
2018-03-26T19:15:18.604Z,74.23
2018-03-26T19:17:47.038Z,74.54
2018-03-26T19:20:15.454Z,74.28
2018-03-26T19:22:43.853Z,74.38
2018-03-26T19:25:12.683Z,74.31
2018-03-26T19:27:41.075Z,74.28
2018-03-26T19:30:10.406Z,74.30
2018-03-26T19:32:38.792Z,74.25
2018-03-26T19:35:08.060Z,74.31
2018-03-26T19:37:37.633Z,74.33
2018-03-26T19:40:07.583Z,74.23
2018-03-26T19:42:36.617Z,74.11
2018-03-26T19:45:05.329Z,74.45
2018-03-26T19:47:33.973Z,74.32
2018-03-26T19:50:02.336Z,74.39
2018-03-26T19:52:30.785Z,74.38
2018-03-26T19:54:59.574Z,74.47
2018-03-26T19:57:29.676Z,74.42
2018-03-26T19:59:58.070Z,74.20
2018-03-26T20:02:27.068Z,74.27
2018-03-26T20:04:55.417Z,73.98
2018-03-26T20:07:23.773Z,73.75
2018-03-26T20:09:52.871Z,73.65
2018-03-26T20:12:21.269Z,73.79
2018-03-26T20:14:50.482Z,73.71
2018-03-26T20:17:19.095Z,73.63
2018-03-26T20:19:47.782Z,73.66
2018-03-26T20:22:16.133Z,73.51
2018-03-26T20:24:44.505Z,73.34
2018-03-26T20:27:13.224Z,73.31
2018-03-26T20:29:41.895Z,73.11
2018-03-26T20:32:10.575Z,73.17
2018-03-26T20:34:39.654Z,72.98
2018-03-26T20:37:08.059Z,73.01
2018-03-26T20:39:36.402Z,73.02
2018-03-26T20:42:05.116Z,73.14
2018-03-26T20:44:34.212Z,73.12
2018-03-26T20:47:02.603Z,73.24
2018-03-26T20:49:32.316Z,73.36
2018-03-26T20:52:02.598Z,73.26
2018-03-26T20:54:30.980Z,72.66
2018-03-26T20:56:59.841Z,72.16
2018-03-26T20:59:28.486Z,72.20
2018-03-26T21:01:57.084Z,72.11
2018-03-26T21:04:25.757Z,72.19
2018-03-26T21:06:54.137Z,72.24
2018-03-26T21:09:22.548Z,72.26
2018-03-26T21:11:51.831Z,72.20
2018-03-26T21:14:22.774Z,72.26
2018-03-26T21:16:54.642Z,72.31
2018-03-26T21:19:23.818Z,71.96
2018-03-26T21:21:54.075Z,71.74
2018-03-26T21:24:22.642Z,71.54
2018-03-26T21:26:51.650Z,71.53
2018-03-26T21:29:20.395Z,71.53
2018-03-26T21:31:49.617Z,71.58
2018-03-26T21:34:17.958Z,71.39
2018-03-26T21:36:49.614Z,71.33
2018-03-26T21:39:18.229Z,71.36
2018-03-26T21:41:47.049Z,71.23
2018-03-26T21:44:15.501Z,70.96
2018-03-26T21:46:44.450Z,70.83
2018-03-26T21:49:13.627Z,70.73
2018-03-26T21:51:42.049Z,70.77
2018-03-26T21:54:12.869Z,70.65
2018-03-26T21:56:41.719Z,70.42
2018-03-26T21:59:10.613Z,70.37
2018-03-26T22:01:40.000Z,70.19
2018-03-26T22:04:09.573Z,69.89
2018-03-26T22:06:39.813Z,69.83
2018-03-26T22:09:08.961Z,69.61
2018-03-26T22:11:38.157Z,69.70
2018-03-26T22:14:06.744Z,69.81
2018-03-26T22:16:36.230Z,69.95
2018-03-26T22:19:05.063Z,69.64
2018-03-26T22:21:35.382Z,69.28
2018-03-26T22:24:04.864Z,69.24
2018-03-26T22:26:33.575Z,69.26
2018-03-26T22:29:01.937Z,69.16
2018-03-26T22:31:31.032Z,68.87
2018-03-26T22:34:00.843Z,68.92
2018-03-26T22:36:29.224Z,69.03
2018-03-26T22:38:57.645Z,68.51
2018-03-26T22:41:26.225Z,68.12
2018-03-26T22:43:54.790Z,68.23
2018-03-26T22:46:24.768Z,68.27
2018-03-26T22:48:53.171Z,68.04
2018-03-26T22:51:22.180Z,67.94
2018-03-26T22:53:50.857Z,68.02
2018-03-26T22:56:19.665Z,68.21
2018-03-26T23:01:20.894Z,67.95
2018-03-26T23:03:49.335Z,67.79
2018-03-26T23:06:18.427Z,67.79
2018-03-26T23:08:47.065Z,67.93
2018-03-26T23:11:15.751Z,68.02
2018-03-26T23:13:44.240Z,67.92
2018-03-26T23:16:13.355Z,67.93
2018-03-26T23:18:41.704Z,67.58
2018-03-26T23:21:10.075Z,67.58
2018-03-26T23:23:38.924Z,67.37
2018-03-26T23:26:08.263Z,67.46
2018-03-26T23:28:37.973Z,67.11
2018-03-26T23:31:07.271Z,67.17
2018-03-26T23:33:36.833Z,66.94
2018-03-26T23:36:06.256Z,67.00
2018-03-26T23:38:35.142Z,67.04
2018-03-26T23:41:03.805Z,66.94
2018-03-26T23:43:33.339Z,67.02
2018-03-26T23:46:02.006Z,66.80
2018-03-26T23:48:30.407Z,66.92
2018-03-26T23:50:59.060Z,66.77
2018-03-26T23:53:28.527Z,66.77
2018-03-26T23:55:56.868Z,66.89
2018-03-26T23:58:25.218Z,66.83
